Portada
METAR-TAF:

METAR-TAF

Aeroports :

Uberaba, Minas Gerais, Brasil

latitud: 19-47S, longitud: 047-58W, altitud: 807 m

Observació

L'informe es va fer fa 1 hora i 2 minuts, a les 00:00 UTC
Vent 10 kt del Est/Nord-Est
Temperatura 20°C
Humitat 46%
Pressió 1022 hPa
Visibilitat 10 km o més
sense núvols per sota de 1500 mi sense presència de cumulonimbus.

METAR: SBUR 210000Z 06010KT CAVOK 20/08 Q1022

Hora: 22:02 (01:02 UTC)

Pronòstic

L'informe es va fer fa 3 hores i 32 minuts, a les 21:30 UTC
Pronòstic vàlid del 21 a les 00 UTC al 21 a les 12 UTC
Vent 8 kt del Est/Nord-Est
Visibilitat: 8000 m

TAF: SBUR 202130Z 2100/2112 06008KT 8000 NSCTN15/2109Z TX17/2111Z RMK PHG

Observacions i pronòstics meteorològics de més de 4000 aeroports (METAR i TAF).

Les estacions disponibles són els punts grocs i vermells al mapa.

Posi el ratolí al punt desitjat per veure el nom de l'estació.

Feu clic per veure les observacions i els pronòstics meteorològics.

Per canviar el mapa: feu clic els botons verds amb una creu de color negre per apropar; al botó verd amb un guió per allunyar la imatge; o en les fletxes verdes per a mapes adjacents.


METAR-TAF: